Airport View

Enter AWOS ICAO identifier for current METAR.

ex. KFNL

KGDV 261156Z AUTO 00000KT 10SM CLR 12/11 A2994 RMK AO2 SLP128 T01220106 10161 20106 53009

26 Jun 2019 12:55

Frequency: 135.075

Phone: 406-687-3346

Other Area AWOS: K20U - KSDY - KBHK - KPO1

TAF KGDV 261125Z 2612/2712 VRB04KT P6SM SCT150 FM270300 09007KT P6SM VCSH BKN100 FM270900 VRB05KT P6SM SCT100